Time;durP1;ratioP1;P1;durP2;ratioP2;P2;SDS_P1;SDS_P2;PMS_P1;PMS_P2;Temp;Humidity;BMP_temperature;BMP_pressure;BME280_temperature;BME280_humidity;BME280_pressure;Samples;Min_cycle;Max_cycle;Signal;HPM_P1;HPM_P2
2022/06/06 00:00:19;;;;;;;;;;;;;;;14.70;83.72;97069.31;30001;983;1881;-60
2022/06/06 00:00:50;;;;;;;;;;;;;;;14.70;83.51;97063.03;30001;983;1881;-61
2022/06/06 00:01:22;;;;;;;;;;;;;;;14.68;83.79;97066.06;30001;983;1881;-60
2022/06/06 00:01:53;;;;;;;;;;;;;;;14.66;83.93;97062.84;30001;983;1881;-61
2022/06/06 00:02:25;;;;;;;;;;;;;;;14.66;83.83;97057.38;30001;982;1868;-61
2022/06/06 00:02:59;;;;;;;;;;;;;;;14.66;84.05;97068.31;30001;982;1859;-62
2022/06/06 00:03:30;;;;;;;;;;;;;;;14.66;84.43;97072.97;30001;982;1881;-61
2022/06/06 00:04:01;;;;;;;;;;;;;;;14.65;84.58;97063.97;30001;982;1882;-60
2022/06/06 00:04:34;;;;;;;;;;;;;;;14.64;84.21;97065.09;30001;982;1881;-59
2022/06/06 00:05:06;;;;;;;;;;;;;;;14.67;83.97;97069.13;30001;983;1880;-61
2022/06/06 00:05:37;;;;;;;;;;;;;;;14.69;83.54;97066.87;30001;983;1880;-60
2022/06/06 00:06:11;;;;;;;;;;;;;;;14.68;83.66;97066.06;30001;983;1881;-60
2022/06/06 00:06:42;;;;;;;;;;;;;;;14.68;83.89;97068.81;30001;983;1881;-51
2022/06/06 00:07:13;;;;;;;;;;;;;;;14.68;83.83;97066.06;30001;983;1881;-61
2022/06/06 00:07:48;;;;;;;;;;;;;;;14.69;83.97;97066.87;30001;965;1779;-61
2022/06/06 00:08:19;;;;;;;;;;;;;;;14.68;83.72;97063.34;30001;983;1872;-61
2022/06/06 00:08:50;;;;;;;;;;;;;;;14.67;84.17;97072.66;30001;983;1881;-61
2022/06/06 00:09:21;;;;;;;;;;;;;;;14.68;83.89;97060.63;30001;983;1881;-60
2022/06/06 00:09:52;;;;;;;;;;;;;;;14.68;84.71;97066.06;30001;983;1868;-60
2022/06/06 00:10:25;;;;;;;;;;;;;;;14.65;85.07;97063.97;30001;982;1872;-53
2022/06/06 00:10:56;;;;;;;;;;;;;;;14.62;84.99;97063.78;30001;982;1881;-52
2022/06/06 00:11:30;;;;;;;;;;;;;;;14.60;85.00;97061.38;30001;982;1882;-54
2022/06/06 00:12:03;;;;;;;;;;;;;;;14.61;85.04;97065.72;30001;982;1881;-60
2022/06/06 00:12:35;;;;;;;;;;;;;;;14.62;84.81;97070.06;30001;983;1880;-60
2022/06/06 00:13:07;;;;;;;;;;;;;;;14.61;84.89;97065.72;30001;983;1880;-52
2022/06/06 00:13:39;;;;;;;;;;;;;;;14.62;84.68;97061.88;30001;987;1877;-53
2022/06/06 00:14:11;;;;;;;;;;;;;;;14.62;84.75;97061.88;30001;983;1881;-61
2022/06/06 00:14:43;;;;;;;;;;;;;;;14.64;84.65;97067.00;30001;983;1881;-60
2022/06/06 00:15:14;;;;;;;;;;;;;;;14.68;84.30;97063.34;30001;983;1868;-53
2022/06/06 00:15:46;;;;;;;;;;;;;;;14.68;84.25;97066.06;30001;983;1859;-52
2022/06/06 00:16:17;;;;;;;;;;;;;;;14.67;84.76;97064.47;30001;983;1881;-61
2022/06/06 00:16:48;;;;;;;;;;;;;;;14.66;84.46;97054.66;30001;983;1881;-61
2022/06/06 00:17:19;;;;;;;;;;;;;;;14.64;84.63;97054.16;30001;983;1881;-60
2022/06/06 00:17:50;;;;;;;;;;;;;;;14.64;84.44;97059.63;30001;982;1881;-53
2022/06/06 00:18:20;;;;;;;;;;;;;;;14.62;84.56;97050.94;30001;982;1882;-61
2022/06/06 00:18:51;;;;;;;;;;;;;;;14.61;84.94;97049.34;30001;982;1868;-55
2022/06/06 00:19:22;;;;;;;;;;;;;;;14.61;84.79;97049.34;30001;982;1873;-62
2022/06/06 00:19:53;;;;;;;;;;;;;;;14.61;84.81;97052.06;30001;982;1882;-53
2022/06/06 00:20:24;;;;;;;;;;;;;;;14.62;85.47;97050.13;30001;983;1868;-53
2022/06/06 00:20:55;;;;;;;;;;;;;;;14.61;85.16;97045.78;30001;983;1859;-61
2022/06/06 00:21:26;;;;;;;;;;;;;;;14.60;85.18;97053.19;30001;983;1881;-52
2022/06/06 00:21:57;;;;;;;;;;;;;;;14.59;84.86;97046.09;30001;983;1881;-53
2022/06/06 00:22:28;;;;;;;;;;;;;;;14.60;85.04;97046.91;30001;983;1881;-60
2022/06/06 00:22:59;;;;;;;;;;;;;;;14.59;84.77;97051.56;30001;983;1881;-62
2022/06/06 00:23:30;;;;;;;;;;;;;;;14.60;85.07;97058.66;30001;983;1881;-60
2022/06/06 00:24:01;;;;;;;;;;;;;;;14.59;84.78;97040.66;30001;983;1809;-53
2022/06/06 00:24:32;;;;;;;;;;;;;;;14.58;85.11;97041.75;30001;983;1881;-52
2022/06/06 00:25:04;;;;;;;;;;;;;;;14.58;84.69;97049.97;30001;982;1882;-60
2022/06/06 00:25:34;;;;;;;;;;;;;;;14.58;84.78;97049.16;30001;982;1881;-61
2022/06/06 00:26:07;;;;;;;;;;;;;;;14.57;84.89;97048.34;30001;982;1868;-60
2022/06/06 00:26:39;;;;;;;;;;;;;;;14.57;85.33;97053.00;30001;982;1873;-53
2022/06/06 00:27:09;;;;;;;;;;;;;;;14.57;85.06;97056.53;30001;982;1882;-61
2022/06/06 00:27:40;;;;;;;;;;;;;;;14.56;85.20;97051.37;30001;983;1881;-61
2022/06/06 00:28:11;;;;;;;;;;;;;;;14.57;85.07;97050.28;30001;983;1881;-62
2022/06/06 00:28:44;;;;;;;;;;;;;;;14.58;85.02;97069.06;30001;983;1881;-54
2022/06/06 00:29:17;;;;;;;;;;;;;;;14.56;85.22;97057.66;30001;983;1881;-53
2022/06/06 00:29:49;;;;;;;;;;;;;;;14.55;84.85;97049.81;30001;983;1868;-61
2022/06/06 00:30:21;;;;;;;;;;;;;;;14.55;84.96;97047.88;30001;983;1872;-61
2022/06/06 00:30:56;;;;;;;;;;;;;;;14.54;85.05;97051.72;30001;983;1881;-61
2022/06/06 00:34:52;;;;;;;;;;;;;;;14.58;84.69;97055.41;30001;982;1868;-60
2022/06/06 00:35:23;;;;;;;;;;;;;;;14.61;84.92;97060.25;30001;983;1872;-59
2022/06/06 00:35:58;;;;;;;;;;;;;;;14.64;84.27;97059.63;30001;983;1881;-60
2022/06/06 00:36:36;;;;;;;;;;;;;;;14.63;84.45;97055.28;30001;983;1881;-52
2022/06/06 00:37:08;;;;;;;;;;;;;;;14.63;84.21;97054.47;30001;983;1881;-62
2022/06/06 00:37:41;;;;;;;;;;;;;;;14.64;84.36;97056.91;30001;983;1881;-60
2022/06/06 00:38:12;;;;;;;;;;;;;;;14.65;84.11;97050.31;30001;983;1881;-52
2022/06/06 00:38:43;;;;;;;;;;;;;;;14.66;84.34;97046.47;30001;983;1881;-54
2022/06/06 00:39:17;;;;;;;;;;;;;;;14.66;83.97;97051.94;30001;983;1868;-61
2022/06/06 00:39:51;;;;;;;;;;;;;;;14.65;84.07;97049.50;30001;982;1873;-60
2022/06/06 00:40:24;;;;;;;;;;;;;;;14.65;84.14;97050.31;30001;982;1881;-59
2022/06/06 00:40:55;;;;;;;;;;;;;;;14.75;83.53;97047.31;30001;982;1881;-53
2022/06/06 00:41:27;;;;;;;;;;;;;;;14.78;83.14;97043.16;30001;982;1881;-52
2022/06/06 00:41:57;;;;;;;;;;;;;;;14.78;83.28;97043.16;30001;982;1881;-60
2022/06/06 00:42:30;;;;;;;;;;;;;;;14.77;83.04;97046.19;30001;982;1881;-60
2022/06/06 00:43:03;;;;;;;;;;;;;;;14.75;83.42;97044.59;30001;983;1881;-61
2022/06/06 00:43:34;;;;;;;;;;;;;;;14.74;83.49;97048.44;30001;983;1881;-61
2022/06/06 00:44:07;;;;;;;;;;;;;;;14.74;83.42;97045.69;30001;983;1881;-60
2022/06/06 00:44:39;;;;;;;;;;;;;;;14.75;83.72;97052.78;30001;983;1868;-51
2022/06/06 00:45:36;;;;;;;;;;;;;;;14.75;83.52;97049.25;30001;983;1859;-59
2022/06/06 00:46:08;;;;;;;;;;;;;;;14.74;83.72;97047.62;30001;983;1877;-62
2022/06/06 00:46:42;;;;;;;;;;;;;;;14.70;84.25;97041.19;30001;983;1881;-52
2022/06/06 00:47:21;;;;;;;;;;;;;;;14.68;84.12;97046.97;30001;982;1881;-60
2022/06/06 00:47:57;;;;;;;;;;;;;;;14.66;84.03;97041.00;30001;982;1881;-61
2022/06/06 00:48:40;;;;;;;;;;;;;;;14.67;84.17;97047.28;30001;960;1903;-60
2022/06/06 00:49:14;;;;;;;;;;;;;;;14.73;84.16;97037.81;30001;982;1868;-53
2022/06/06 00:49:50;;;;;;;;;;;;;;;14.72;83.39;97039.75;30001;982;1873;-60
2022/06/06 00:50:25;;;;;;;;;;;;;;;14.72;83.73;97039.75;30001;983;1881;-60
2022/06/06 00:51:01;;;;;;;;;;;;;;;14.73;83.78;97046.81;30001;983;1881;-61
2022/06/06 00:51:33;;;;;;;;;;;;;;;14.69;83.87;97040.38;30001;983;1881;-61
2022/06/06 00:52:06;;;;;;;;;;;;;;;14.68;84.23;97044.22;30001;983;1881;-54
2022/06/06 00:52:39;;;;;;;;;;;;;;;14.65;84.67;97031.19;30001;983;1881;-60
2022/06/06 00:53:11;;;;;;;;;;;;;;;14.66;84.73;97041.00;30001;983;1881;-60
2022/06/06 00:53:52;;;;;;;;;;;;;;;14.65;84.74;97044.06;30001;983;1868;-61
2022/06/06 00:54:23;;;;;;;;;;;;;;;14.63;84.80;97036.16;30001;983;1872;-54
2022/06/06 00:54:56;;;;;;;;;;;;;;;14.62;85.04;97034.56;30001;982;1868;-53
2022/06/06 00:55:29;;;;;;;;;;;;;;;14.61;85.08;97032.12;30001;982;1860;-61
2022/06/06 00:56:20;;;;;;;;;;;;;;;14.59;84.92;97039.84;30001;982;1881;-59
2022/06/06 00:56:55;;;;;;;;;;;;;;;14.58;85.03;97038.22;30001;982;1877;-60
2022/06/06 00:57:29;;;;;;;;;;;;;;;14.57;85.04;97033.88;30001;982;1881;-61
2022/06/06 00:58:05;;;;;;;;;;;;;;;14.55;84.98;97034.22;30001;983;1881;-52
2022/06/06 00:58:36;;;;;;;;;;;;;;;14.55;84.99;97038.88;30001;983;1881;-61
2022/06/06 00:59:12;;;;;;;;;;;;;;;14.54;85.12;97037.28;30001;983;1881;-60
2022/06/06 00:59:44;;;;;;;;;;;;;;;14.52;85.10;97034.84;30001;983;1881;-60
2022/06/06 01:00:17;;;;;;;;;;;;;;;14.52;85.61;97031.31;30001;983;1866;-60
2022/06/06 01:00:49;;;;;;;;;;;;;;;14.52;85.45;97025.88;30001;983;1859;-61
2022/06/06 01:01:20;;;;;;;;;;;;;;;14.52;85.27;97034.06;30001;983;1881;-60
2022/06/06 01:01:52;;;;;;;;;;;;;;;14.52;84.85;97023.13;30001;983;1881;-52
2022/06/06 01:02:24;;;;;;;;;;;;;;;14.52;84.90;97029.41;30001;982;1881;-61
2022/06/06 01:02:56;;;;;;;;;;;;;;;14.52;85.02;97028.59;30001;982;1881;-61
2022/06/06 01:03:28;;;;;;;;;;;;;;;14.51;84.63;97030.50;30001;982;1881;-61
2022/06/06 01:04:00;;;;;;;;;;;;;;;14.51;84.89;97027.78;30001;982;1868;-61
2022/06/06 01:04:32;;;;;;;;;;;;;;;14.51;84.63;97030.50;30001;982;1873;-53
2022/06/06 01:05:05;;;;;;;;;;;;;;;14.50;85.29;97031.62;30001;982;1882;-60
2022/06/06 01:05:36;;;;;;;;;;;;;;;14.48;85.34;97036.59;30001;983;1881;-59
2022/06/06 01:06:08;;;;;;;;;;;;;;;14.46;85.50;97030.66;30001;983;1881;-54
2022/06/06 01:06:41;;;;;;;;;;;;;;;14.47;85.51;97036.91;30001;983;1881;-52
2022/06/06 01:07:12;;;;;;;;;;;;;;;14.44;85.65;97038.34;30001;983;1881;-59
2022/06/06 01:07:43;;;;;;;;;;;;;;;14.43;85.85;97030.47;30001;983;1868;-61
2022/06/06 01:08:15;;;;;;;;;;;;;;;14.41;85.84;97033.50;30001;983;1872;-53
2022/06/06 01:08:47;;;;;;;;;;;;;;;14.40;85.97;97032.69;30001;983;1881;-61
2022/06/06 01:09:20;;;;;;;;;;;;;;;14.40;85.72;97031.88;30001;983;1881;-59
2022/06/06 01:09:50;;;;;;;;;;;;;;;14.43;85.81;97031.28;30001;982;1881;-52
2022/06/06 01:10:22;;;;;;;;;;;;;;;14.44;85.26;97032.09;30001;982;1881;-61
2022/06/06 01:10:53;;;;;;;;;;;;;;;14.45;85.28;97033.69;30001;982;1765;-61
2022/06/06 01:11:24;;;;;;;;;;;;;;;14.46;85.38;97025.19;30001;982;1873;-61
2022/06/06 01:11:59;;;;;;;;;;;;;;;14.46;85.33;97027.91;30001;982;1882;-61
2022/06/06 01:12:34;;;;;;;;;;;;;;;14.45;85.71;97022.78;30001;983;1880;-61
2022/06/06 01:13:07;;;;;;;;;;;;;;;14.45;85.41;97022.78;30001;983;1881;-53
2022/06/06 01:13:39;;;;;;;;;;;;;;;14.46;84.70;97029.84;30001;983;1881;-52
2022/06/06 01:14:12;;;;;;;;;;;;;;;14.44;85.00;97021.97;30001;983;1881;-61
2022/06/06 01:14:50;;;;;;;;;;;;;;;14.44;85.08;97015.69;30001;983;1881;-60
2022/06/06 01:15:23;;;;;;;;;;;;;;;14.41;84.99;97017.12;30001;983;1881;-53
2022/06/06 01:16:10;;;;;;;;;;;;;;;14.40;85.33;97020.94;30001;983;1868;-60
2022/06/06 01:16:52;;;;;;;;;;;;;;;14.41;85.12;97019.88;30001;983;1873;-53
2022/06/06 01:17:32;;;;;;;;;;;;;;;14.42;84.94;97013.28;30001;982;1881;-60
2022/06/06 01:18:07;;;;;;;;;;;;;;;14.39;85.00;97019.34;30001;982;1882;-61
2022/06/06 01:18:57;;;;;;;;;;;;;;;14.35;85.20;97018.34;30001;982;1882;-52
2022/06/06 01:20:00;;;;;;;;;;;;;;;14.33;85.37;97015.94;30001;982;1864;-61
2022/06/06 01:20:50;;;;;;;;;;;;;;;14.31;85.74;97017.38;30001;983;1854;-52
2022/06/06 01:21:39;;;;;;;;;;;;;;;14.31;85.84;97012.72;30001;983;1872;-61
2022/06/06 01:22:28;;;;;;;;;;;;;;;14.33;85.50;97015.13;30001;983;1881;-60
2022/06/06 01:23:18;;;;;;;;;;;;;;;14.30;85.46;97010.28;30001;983;1872;-62
2022/06/06 01:24:21;;;;;;;;;;;;;;;14.29;85.80;97009.50;30001;983;1877;-61
2022/06/06 01:25:06;;;;;;;;;;;;;;;14.28;86.12;97012.53;30001;982;1864;-61
2022/06/06 01:26:05;;;;;;;;;;;;;;;14.27;86.28;97010.91;30001;974;1889;-61
2022/06/06 01:26:55;;;;;;;;;;;;;;;14.28;86.49;97009.81;30001;982;1864;-62
2022/06/06 01:27:37;;;;;;;;;;;;;;;14.26;86.40;97006.56;30001;983;1863;-61
2022/06/06 01:28:26;;;;;;;;;;;;;;;14.25;86.37;97013.16;30001;983;1881;-60
2022/06/06 01:29:09;;;;;;;;;;;;;;;14.23;86.69;97004.47;30001;983;1872;-62
2022/06/06 01:29:44;;;;;;;;;;;;;;;14.26;86.57;97003.84;30001;983;1881;-61
2022/06/06 01:30:16;;;;;;;;;;;;;;;14.24;86.24;97012.34;30001;983;1881;-61
2022/06/06 01:30:51;;;;;;;;;;;;;;;14.25;86.15;97011.22;30001;983;1881;-61
2022/06/06 01:31:36;;;;;;;;;;;;;;;14.24;86.26;97006.09;30001;983;1868;-61
2022/06/06 01:32:12;;;;;;;;;;;;;;;14.23;86.48;97004.47;30001;983;1873;-60
2022/06/06 01:32:45;;;;;;;;;;;;;;;14.23;86.44;97005.28;30001;982;1881;-61
2022/06/06 01:33:16;;;;;;;;;;;;;;;14.23;86.47;97015.38;30001;982;1881;-60
2022/06/06 01:33:58;;;;;;;;;;;;;;;14.23;86.61;97001.75;30001;982;1882;-60
2022/06/06 01:34:31;;;;;;;;;;;;;;;14.23;86.65;96999.00;30001;982;1882;-62
2022/06/06 01:35:03;;;;;;;;;;;;;;;14.23;86.97;97005.28;30001;983;1881;-61
2022/06/06 01:35:36;;;;;;;;;;;;;;;14.23;86.75;97005.28;30001;983;1868;-61
2022/06/06 01:36:06;;;;;;;;;;;;;;;14.22;87.13;97002.88;30001;983;1872;-62
2022/06/06 01:36:39;;;;;;;;;;;;;;;14.24;86.95;97008.81;30001;983;1881;-61
2022/06/06 01:37:27;;;;;;;;;;;;;;;14.23;86.83;97001.75;30001;983;1881;-61
2022/06/06 01:37:59;;;;;;;;;;;;;;;14.23;87.22;97001.75;30001;983;1881;-60
2022/06/06 01:38:30;;;;;;;;;;;;;;;14.22;87.17;97006.41;30001;983;1881;-61
2022/06/06 01:39:03;;;;;;;;;;;;;;;14.22;87.14;97002.88;30001;982;1881;-61
2022/06/06 01:39:34;;;;;;;;;;;;;;;14.20;87.43;96995.00;30001;982;1881;-60
2022/06/06 01:40:11;;;;;;;;;;;;;;;14.19;87.47;96995.31;30001;982;1881;-60
2022/06/06 01:40:57;;;;;;;;;;;;;;;14.20;87.71;96999.66;30001;982;1868;-60
2022/06/06 01:41:55;;;;;;;;;;;;;;;14.20;87.50;97002.41;30001;982;1873;-61
2022/06/06 01:42:48;;;;;;;;;;;;;;;14.25;87.21;96996.78;30001;983;1876;-61
2022/06/06 01:43:20;;;;;;;;;;;;;;;14.26;87.08;96998.37;30001;983;1881;-61
2022/06/06 01:43:54;;;;;;;;;;;;;;;14.25;87.29;96991.31;30001;983;1881;-60
2022/06/06 01:44:45;;;;;;;;;;;;;;;14.32;86.60;96992.50;30001;983;1881;-60
2022/06/06 01:45:38;;;;;;;;;;;;;;;14.35;86.23;96996.50;30001;983;1876;-52
2022/06/06 01:46:12;;;;;;;;;;;;;;;14.34;86.20;96989.44;30001;983;1868;-60
2022/06/06 01:46:43;;;;;;;;;;;;;;;14.35;86.43;96993.78;30001;982;1872;-60
2022/06/06 01:47:17;;;;;;;;;;;;;;;14.35;86.16;96991.06;30001;982;1881;-59
2022/06/06 01:47:50;;;;;;;;;;;;;;;14.37;86.12;96986.09;30001;982;1881;-60
2022/06/06 01:48:23;;;;;;;;;;;;;;;14.40;86.21;96988.19;30001;982;1881;-60
2022/06/06 01:48:56;;;;;;;;;;;;;;;14.45;86.04;96990.00;30001;982;1868;-59
2022/06/06 01:49:28;;;;;;;;;;;;;;;14.53;85.07;96987.31;30001;982;1873;-61
2022/06/06 01:49:59;;;;;;;;;;;;;;;14.54;85.35;96983.47;30001;983;1881;-60
2022/06/06 01:50:31;;;;;;;;;;;;;;;14.53;85.16;96992.78;30001;983;1881;-59
2022/06/06 01:51:10;;;;;;;;;;;;;;;14.51;85.35;96989.56;30001;983;1797;-60
2022/06/06 01:51:42;;;;;;;;;;;;;;;14.51;85.20;96988.75;30001;983;1881;-59
2022/06/06 01:52:14;;;;;;;;;;;;;;;14.49;85.88;96986.34;30001;983;1881;-61
2022/06/06 01:53:01;;;;;;;;;;;;;;;14.47;85.89;96983.13;30001;983;1881;-60
2022/06/06 01:53:35;;;;;;;;;;;;;;;14.46;86.27;96991.63;30001;983;1868;-61
2022/06/06 01:54:06;;;;;;;;;;;;;;;14.45;86.51;96985.34;30001;982;1859;-60
2022/06/06 01:54:37;;;;;;;;;;;;;;;14.44;86.31;96988.41;30001;982;1881;-52
2022/06/06 01:55:08;;;;;;;;;;;;;;;14.44;86.30;96988.41;30001;982;1881;-61
2022/06/06 01:55:39;;;;;;;;;;;;;;;14.45;86.24;96990.81;30001;982;1882;-61
2022/06/06 01:56:13;;;;;;;;;;;;;;;14.46;86.08;96986.97;30001;982;1881;-60
2022/06/06 01:56:45;;;;;;;;;;;;;;;14.46;86.04;96989.69;30001;982;1868;-61
2022/06/06 01:57:16;;;;;;;;;;;;;;;14.49;86.21;96991.81;30001;982;1873;-59
2022/06/06 01:57:49;;;;;;;;;;;;;;;14.52;85.34;96990.37;30001;983;1868;-62
2022/06/06 01:58:22;;;;;;;;;;;;;;;14.54;85.34;96986.19;30001;983;1872;-60
2022/06/06 01:58:53;;;;;;;;;;;;;;;14.56;85.25;96983.13;30001;983;1881;-61
2022/06/06 01:59:24;;;;;;;;;;;;;;;14.57;85.56;96982.81;30001;983;1881;-61
2022/06/06 01:59:57;;;;;;;;;;;;;;;14.60;85.20;96987.66;30001;983;1881;-60
2022/06/06 02:00:30;;;;;;;;;;;;;;;14.62;84.73;96982.66;30001;983;1881;-61
2022/06/06 02:01:02;;;;;;;;;;;;;;;14.60;84.69;96981.38;30001;983;1881;-60
2022/06/06 02:01:35;;;;;;;;;;;;;;;14.58;85.04;96981.69;30001;982;1881;-60
2022/06/06 02:02:06;;;;;;;;;;;;;;;14.57;84.94;96988.28;30001;982;1881;-61
2022/06/06 02:02:38;;;;;;;;;;;;;;;14.58;85.17;96983.63;30001;982;1881;-61
2022/06/06 02:03:09;;;;;;;;;;;;;;;14.55;85.00;96985.09;30001;982;1868;-62
2022/06/06 02:03:41;;;;;;;;;;;;;;;14.55;85.13;96990.53;30001;982;1775;-59
2022/06/06 02:04:12;;;;;;;;;;;;;;;14.56;85.40;96983.13;30001;982;1868;-61
2022/06/06 02:04:42;;;;;;;;;;;;;;;14.56;85.04;96988.59;30001;982;1873;-60
2022/06/06 02:05:14;;;;;;;;;;;;;;;14.56;85.33;96991.31;30001;983;1881;-61
2022/06/06 02:05:45;;;;;;;;;;;;;;;14.58;85.72;96984.41;30001;983;1881;-60
2022/06/06 02:06:16;;;;;;;;;;;;;;;14.61;85.08;96991.97;30001;983;1881;-60
2022/06/06 02:06:47;;;;;;;;;;;;;;;14.60;84.91;96987.66;30001;983;1881;-60
2022/06/06 02:07:17;;;;;;;;;;;;;;;14.59;85.09;96988.75;30001;983;1881;-60
2022/06/06 02:07:48;;;;;;;;;;;;;;;14.61;85.09;96991.19;30001;983;1881;-60
2022/06/06 02:08:19;;;;;;;;;;;;;;;14.60;85.22;96993.09;30001;983;1881;-60
2022/06/06 02:08:53;;;;;;;;;;;;;;;14.60;85.02;96989.56;30001;983;1868;-61
2022/06/06 02:09:26;;;;;;;;;;;;;;;14.57;85.58;96985.53;30001;982;1873;-61
2022/06/06 02:09:57;;;;;;;;;;;;;;;14.60;85.20;96995.84;30001;982;1881;-60
2022/06/06 02:10:27;;;;;;;;;;;;;;;14.59;85.27;96986.03;30001;968;1907;-61
2022/06/06 02:10:58;;;;;;;;;;;;;;;14.67;84.54;96993.47;30001;982;1881;-61
2022/06/06 02:11:29;;;;;;;;;;;;;;;14.67;84.50;96988.00;30001;982;1882;-60
2022/06/06 02:12:04;;;;;;;;;;;;;;;14.66;84.11;96996.50;30001;983;1880;-61
2022/06/06 02:12:38;;;;;;;;;;;;;;;14.66;84.57;96999.22;30001;983;1881;-61
2022/06/06 02:13:09;;;;;;;;;;;;;;;14.63;84.61;96997.94;30001;983;1867;-60
2022/06/06 02:13:40;;;;;;;;;;;;;;;14.64;84.96;96994.09;30001;983;1872;-60
2022/06/06 02:14:12;;;;;;;;;;;;;;;14.69;84.27;96999.41;30001;983;1805;-61
2022/06/06 02:14:42;;;;;;;;;;;;;;;14.70;84.28;96998.28;30001;983;1881;-59
2022/06/06 02:15:15;;;;;;;;;;;;;;;14.71;84.10;96994.44;30002;792;1014;-60
2022/06/06 02:15:45;;;;;;;;;;;;;;;14.69;84.08;96996.69;30001;983;1881;-60
2022/06/06 02:16:16;;;;;;;;;;;;;;;14.69;84.03;96996.69;30001;983;1881;-60
2022/06/06 02:16:47;;;;;;;;;;;;;;;14.67;84.39;96995.38;30001;982;1881;-61
2022/06/06 02:17:18;;;;;;;;;;;;;;;14.66;84.25;96991.84;30001;982;1881;-61
2022/06/06 02:17:49;;;;;;;;;;;;;;;14.64;84.80;96994.09;30001;982;1882;-61
2022/06/06 02:18:22;;;;;;;;;;;;;;;14.63;85.35;96994.41;30001;982;1868;-61
2022/06/06 02:18:53;;;;;;;;;;;;;;;14.60;84.95;96998.56;30001;982;1873;-61
2022/06/06 02:19:23;;;;;;;;;;;;;;;14.60;85.12;96997.75;30001;983;1868;-61
2022/06/06 02:19:54;;;;;;;;;;;;;;;14.57;85.55;96999.19;30001;983;1872;-61
2022/06/06 02:20:27;;;;;;;;;;;;;;;14.55;85.28;96996.00;30001;983;1881;-61
2022/06/06 02:20:58;;;;;;;;;;;;;;;14.52;85.51;96996.63;30001;983;1881;-60
2022/06/06 02:21:29;;;;;;;;;;;;;;;14.52;85.45;96990.37;30001;983;1881;-60
2022/06/06 02:21:59;;;;;;;;;;;;;;;14.50;85.55;96998.87;30001;983;1881;-60
2022/06/06 02:22:31;;;;;;;;;;;;;;;14.50;85.72;96995.34;30001;983;1881;-61
2022/06/06 02:23:02;;;;;;;;;;;;;;;14.48;85.94;96995.66;30001;983;1881;-60
2022/06/06 02:23:33;;;;;;;;;;;;;;;14.48;85.80;96992.13;30001;983;1881;-61
2022/06/06 02:24:04;;;;;;;;;;;;;;;14.47;85.68;96988.56;30001;983;1881;-60
2022/06/06 02:24:35;;;;;;;;;;;;;;;14.48;85.27;96990.19;30001;982;1868;-61
2022/06/06 02:25:06;;;;;;;;;;;;;;;14.48;85.08;96987.47;30001;982;1873;-61
2022/06/06 02:25:37;;;;;;;;;;;;;;;14.47;85.28;96988.56;30001;982;1881;-60
2022/06/06 02:26:09;;;;;;;;;;;;;;;14.45;85.58;96990.81;30001;982;1868;-60
2022/06/06 02:26:43;;;;;;;;;;;;;;;14.44;85.40;96978.28;30001;983;1872;-62
2022/06/06 02:27:14;;;;;;;;;;;;;;;14.43;85.47;96976.69;30001;983;1881;-60
2022/06/06 02:27:45;;;;;;;;;;;;;;;14.43;86.01;96984.88;30001;983;1881;-62
2022/06/06 02:28:16;;;;;;;;;;;;;;;14.43;86.01;96987.59;30001;983;1867;-61
2022/06/06 02:28:49;;;;;;;;;;;;;;;14.41;86.14;96985.19;30001;983;1872;-60
2022/06/06 02:29:20;;;;;;;;;;;;;;;14.41;85.80;96984.38;30001;983;1881;-60
2022/06/06 02:29:50;;;;;;;;;;;;;;;14.42;85.95;96991.44;30001;983;1868;-61
2022/06/06 02:30:23;;;;;;;;;;;;;;;14.41;86.20;96984.38;30001;983;1872;-61
2022/06/06 02:30:54;;;;;;;;;;;;;;;14.40;86.32;96982.72;30001;983;1881;-60
2022/06/06 02:31:24;;;;;;;;;;;;;;;14.39;86.11;96978.38;30001;983;1881;-61
2022/06/06 02:31:55;;;;;;;;;;;;;;;14.40;86.33;96982.72;30001;982;1881;-61
2022/06/06 02:32:26;;;;;;;;;;;;;;;14.40;86.32;96978.06;30001;982;1881;-61
2022/06/06 02:32:57;;;;;;;;;;;;;;;14.41;86.30;96978.91;30001;982;1881;-60
2022/06/06 02:33:28;;;;;;;;;;;;;;;14.40;86.02;96982.72;30001;982;1881;-61
2022/06/06 02:33:59;;;;;;;;;;;;;;;14.39;86.40;96976.47;30001;986;1882;-60
2022/06/06 02:34:29;;;;;;;;;;;;;;;14.38;86.26;96974.06;30001;983;1881;-61
2022/06/06 02:35:01;;;;;;;;;;;;;;;14.36;86.50;96974.38;30001;983;1868;-60
2022/06/06 02:35:34;;;;;;;;;;;;;;;14.38;86.47;96974.06;30001;983;1872;-62
2022/06/06 02:36:05;;;;;;;;;;;;;;;14.38;86.81;96968.59;30001;983;1881;-60
2022/06/06 02:36:36;;;;;;;;;;;;;;;14.37;86.81;96967.78;30001;983;1881;-61
2022/06/06 02:37:07;;;;;;;;;;;;;;;14.37;86.98;96973.25;30001;983;1881;-61
2022/06/06 02:37:38;;;;;;;;;;;;;;;14.35;86.69;96961.84;30001;963;1883;-61
2022/06/06 02:38:10;;;;;;;;;;;;;;;14.36;87.08;96976.28;30001;983;1881;-62
2022/06/06 02:38:41;;;;;;;;;;;;;;;14.35;87.10;96971.94;30001;982;1868;-62
2022/06/06 02:39:12;;;;;;;;;;;;;;;14.35;86.85;96977.41;30001;982;1873;-60
2022/06/06 02:39:43;;;;;;;;;;;;;;;14.32;86.72;96975.31;30001;982;1881;-61
2022/06/06 02:40:16;;;;;;;;;;;;;;;14.31;87.19;96979.16;30001;982;1881;-62
2022/06/06 02:40:47;;;;;;;;;;;;;;;14.31;86.86;96979.16;30001;982;1881;-62
2022/06/06 02:41:18;;;;;;;;;;;;;;;14.34;87.30;96984.00;30001;982;1882;-60
2022/06/06 02:41:49;;;;;;;;;;;;;;;14.36;86.72;96976.28;30001;983;1881;-60
2022/06/06 02:42:21;;;;;;;;;;;;;;;14.38;86.41;96979.50;30001;983;1868;-60
2022/06/06 02:42:52;;;;;;;;;;;;;;;14.38;86.30;96974.84;30001;983;1872;-60
2022/06/06 02:43:23;;;;;;;;;;;;;;;14.38;86.63;96974.84;30001;983;1881;-59
2022/06/06 02:43:54;;;;;;;;;;;;;;;14.37;86.33;96973.25;30001;983;1881;-60
2022/06/06 02:44:24;;;;;;;;;;;;;;;14.38;86.47;96979.50;30001;986;1868;-52
2022/06/06 02:44:55;;;;;;;;;;;;;;;14.38;86.51;96976.78;30001;983;1872;-61
2022/06/06 02:45:26;;;;;;;;;;;;;;;14.38;86.75;96979.50;30001;983;1881;-61
2022/06/06 02:45:57;;;;;;;;;;;;;;;14.37;86.48;96972.44;30001;983;1881;-61
2022/06/06 02:46:31;;;;;;;;;;;;;;;14.37;86.51;96973.25;30001;982;1881;-60
2022/06/06 02:47:03;;;;;;;;;;;;;;;14.37;86.74;96973.25;30001;982;1868;-60
2022/06/06 02:47:34;;;;;;;;;;;;;;;14.36;86.28;96974.38;30001;982;1872;-61
2022/06/06 02:48:06;;;;;;;;;;;;;;;14.36;86.50;96976.28;30001;982;1882;-60
2022/06/06 02:48:38;;;;;;;;;;;;;;;14.35;86.40;96978.22;30001;982;1881;-61
2022/06/06 02:49:09;;;;;;;;;;;;;;;14.35;86.20;96980.13;30001;982;1882;-52
2022/06/06 02:49:40;;;;;;;;;;;;;;;14.34;86.91;96981.25;30001;983;1881;-60
2022/06/06 02:50:11;;;;;;;;;;;;;;;14.33;87.08;96987.84;30001;983;1868;-61
2022/06/06 02:50:42;;;;;;;;;;;;;;;14.30;86.77;96977.53;30001;983;1859;-61
2022/06/06 02:51:13;;;;;;;;;;;;;;;14.29;87.25;96975.94;30001;983;1881;-59
2022/06/06 02:51:44;;;;;;;;;;;;;;;14.28;87.03;96980.59;30001;983;1881;-60
2022/06/06 02:52:14;;;;;;;;;;;;;;;14.29;87.25;96984.94;30001;983;1881;-61
2022/06/06 02:52:45;;;;;;;;;;;;;;;14.29;86.86;96981.38;30001;983;1868;-61
2022/06/06 02:53:16;;;;;;;;;;;;;;;14.28;86.86;96982.50;30001;983;1872;-61
2022/06/06 02:53:50;;;;;;;;;;;;;;;14.27;87.10;96983.63;30001;982;1881;-61
2022/06/06 02:54:21;;;;;;;;;;;;;;;14.25;87.03;96983.94;30001;982;1881;-61
2022/06/06 02:54:52;;;;;;;;;;;;;;;14.23;87.25;96978.00;30001;982;1881;-61
2022/06/06 02:55:24;;;;;;;;;;;;;;;14.23;87.47;96985.38;30001;982;1868;-61
2022/06/06 02:55:55;;;;;;;;;;;;;;;14.22;87.81;96986.50;30001;982;1873;-61
2022/06/06 02:56:29;;;;;;;;;;;;;;;14.21;87.71;96990.34;30001;982;1882;-62
2022/06/06 02:57:03;;;;;;;;;;;;;;;14.19;88.02;96992.59;30001;983;1881;-61
2022/06/06 02:57:41;;;;;;;;;;;;;;;14.15;88.41;96994.34;30001;983;1868;-62
2022/06/06 02:58:15;;;;;;;;;;;;;;;14.11;88.52;96990.63;30001;983;1872;-61
2022/06/06 02:58:46;;;;;;;;;;;;;;;14.09;88.46;96996.38;30001;983;1881;-62
2022/06/06 02:59:20;;;;;;;;;;;;;;;14.07;88.79;96988.53;30001;983;1881;-61
2022/06/06 02:59:52;;;;;;;;;;;;;;;14.07;88.78;96996.69;30001;983;1881;-61
2022/06/06 03:00:25;;;;;;;;;;;;;;;14.05;88.84;96998.94;30001;983;1868;-62
2022/06/06 03:00:59;;;;;;;;;;;;;;;14.03;88.69;97003.91;30001;983;1873;-62
2022/06/06 03:01:30;;;;;;;;;;;;;;;14.02;89.07;97005.00;30001;982;1881;-60
2022/06/06 03:02:02;;;;;;;;;;;;;;;14.00;89.16;97001.78;30001;982;1881;-60
2022/06/06 03:02:34;;;;;;;;;;;;;;;14.00;88.92;97001.78;30001;982;1881;-58
2022/06/06 03:03:05;;;;;;;;;;;;;;;13.99;88.93;97000.19;30001;982;1881;-60